createdAt,value
2022-09-25T00:00:31.952Z,101236.81
2022-09-25T00:01:33.685Z,101242.88
2022-09-25T00:02:35.584Z,101240.34
2022-09-25T00:03:37.942Z,101244.09
2022-09-25T00:04:39.736Z,101241.75
2022-09-25T00:05:43.875Z,101240.72
2022-09-25T00:06:48.233Z,101244.09
2022-09-25T00:07:49.940Z,101239.03
2022-09-25T00:08:52.587Z,101238.88
2022-09-25T00:09:54.324Z,101233.34
2022-09-25T00:10:56.069Z,101235.56
2022-09-25T00:11:57.823Z,101242.78
2022-09-25T00:13:00.009Z,101241.09
2022-09-25T00:14:02.153Z,101241.63
2022-09-25T00:15:05.448Z,101243.97
2022-09-25T00:16:10.593Z,101244.16
2022-09-25T00:17:12.525Z,101239.94
2022-09-25T00:18:14.845Z,101247.69
2022-09-25T00:19:39.860Z,101243.31
2022-09-25T00:20:41.811Z,101234.34
2022-09-25T00:21:43.723Z,101232.69
2022-09-25T00:22:45.662Z,101248.56
2022-09-25T00:23:47.855Z,101251.44
2022-09-25T00:24:50.550Z,101247.03
2022-09-25T00:25:56.306Z,101223.97
2022-09-25T00:26:59.782Z,101242.66
2022-09-25T00:28:01.760Z,101244.34
2022-09-25T00:29:06.486Z,101245.34
2022-09-25T00:30:09.930Z,101247.25
2022-09-25T00:31:18.517Z,101244.53
2022-09-25T00:32:20.372Z,101239.13
2022-09-25T00:33:22.493Z,101226.69
2022-09-25T00:34:24.232Z,101222.25
2022-09-25T00:35:25.925Z,101237.59
2022-09-25T00:36:29.075Z,101245.91
2022-09-25T00:37:33.854Z,101240.50
2022-09-25T00:38:37.289Z,101245.72
2022-09-25T00:39:39.375Z,101241.53
2022-09-25T00:40:41.321Z,101243.22
2022-09-25T00:41:43.335Z,101244.59
2022-09-25T00:42:45.082Z,101242.56
2022-09-25T00:43:51.138Z,101239.19
2022-09-25T00:45:01.020Z,101249.66
2022-09-25T00:46:05.449Z,101223.97
2022-09-25T00:47:08.869Z,101229.06
2022-09-25T00:48:15.575Z,101244.59
2022-09-25T00:49:24.948Z,101239.00
2022-09-25T00:50:52.967Z,101247.97
2022-09-25T00:52:03.130Z,101232.91
2022-09-25T00:53:34.366Z,101241.47
2022-09-25T00:54:45.273Z,101238.47
2022-09-25T00:55:47.635Z,101241.16
2022-09-25T00:56:51.691Z,101236.47
2022-09-25T00:57:56.771Z,101242.03
2022-09-25T00:58:59.037Z,101227.72
2022-09-25T01:00:12.815Z,101230.25
2022-09-25T01:01:14.861Z,101246.63
2022-09-25T01:02:25.189Z,101240.91
2022-09-25T01:03:27.559Z,101246.13
2022-09-25T01:04:34.648Z,101249.84
2022-09-25T01:05:41.933Z,101241.94
2022-09-25T01:06:44.459Z,101243.13
2022-09-25T01:07:49.263Z,101242.94
2022-09-25T01:08:51.292Z,101251.06
2022-09-25T01:09:59.508Z,101234.22
2022-09-25T01:11:01.843Z,101240.66
2022-09-25T01:12:03.597Z,101249.38
2022-09-25T01:13:06.423Z,101252.44
2022-09-25T01:14:10.128Z,101244.31
2022-09-25T01:15:15.017Z,101255.16
2022-09-25T01:16:31.712Z,101250.22
2022-09-25T01:17:45.659Z,101241.09
2022-09-25T01:18:53.347Z,101251.06
2022-09-25T01:20:24.056Z,101230.78
2022-09-25T01:21:38.475Z,101236.41
2022-09-25T01:23:24.576Z,101238.38
2022-09-25T01:24:42.938Z,101247.31
2022-09-25T01:26:13.622Z,101248.84
2022-09-25T01:27:39.438Z,101243.75
2022-09-25T01:28:54.614Z,101244.44
2022-09-25T01:30:11.260Z,101244.81
2022-09-25T01:31:22.375Z,101242.28
2022-09-25T01:32:29.691Z,101247.03
2022-09-25T01:33:35.196Z,101234.53
2022-09-25T01:34:58.210Z,101240.13
2022-09-25T01:36:14.054Z,101242.63
2022-09-25T01:37:34.030Z,101221.06
2022-09-25T01:38:44.743Z,101249.94
2022-09-25T01:40:02.054Z,101250.09
2022-09-25T01:41:28.584Z,101221.06
2022-09-25T01:42:40.550Z,101241.81
2022-09-25T01:44:20.816Z,101242.28
2022-09-25T01:45:29.684Z,101241.44
2022-09-25T01:46:37.557Z,101236.56
2022-09-25T01:47:39.695Z,101235.09
2022-09-25T01:48:43.920Z,101231.22
2022-09-25T01:49:50.429Z,101233.28
2022-09-25T01:51:24.820Z,101232.19
2022-09-25T01:52:37.806Z,101219.94
2022-09-25T01:53:47.971Z,101219.94
2022-09-25T01:54:55.045Z,101230.84
2022-09-25T01:56:01.972Z,101231.88
2022-09-25T01:57:16.156Z,101227.50
2022-09-25T01:58:27.567Z,101240.00
2022-09-25T01:59:47.875Z,101231.88
2022-09-25T02:00:57.004Z,101237.28
2022-09-25T02:02:04.171Z,101233.94
2022-09-25T02:03:16.750Z,101229.91
2022-09-25T02:04:44.842Z,101228.50
2022-09-25T02:05:52.207Z,101231.88
2022-09-25T02:06:57.961Z,101208.13
2022-09-25T02:08:08.764Z,101216.75
2022-09-25T02:09:16.494Z,101234.50
2022-09-25T02:10:23.427Z,101222.66
2022-09-25T02:11:31.661Z,101222.16
2022-09-25T02:12:40.957Z,101223.16
2022-09-25T02:13:49.647Z,101229.06
2022-09-25T02:14:59.735Z,101225.50
2022-09-25T02:16:07.284Z,101215.59
2022-09-25T02:17:34.180Z,101222.31
2022-09-25T02:18:54.991Z,101226.66
2022-09-25T02:20:15.064Z,101227.50
2022-09-25T02:21:19.901Z,101220.41
2022-09-25T02:22:30.404Z,101203.28
2022-09-25T02:23:42.707Z,101225.50
2022-09-25T02:24:55.244Z,101227.19
2022-09-25T02:26:14.823Z,101214.19
2022-09-25T02:27:20.452Z,101208.63
2022-09-25T02:28:23.475Z,101227.41
2022-09-25T02:29:25.552Z,101221.50
2022-09-25T02:30:27.492Z,101218.50
2022-09-25T02:31:36.917Z,101221.84
2022-09-25T02:32:38.714Z,101219.81
2022-09-25T02:33:41.002Z,101208.69
2022-09-25T02:34:42.926Z,101207.38
2022-09-25T02:35:44.724Z,101211.19
2022-09-25T02:36:46.607Z,101205.69
2022-09-25T02:37:48.480Z,101202.31
2022-09-25T02:38:53.702Z,101210.75
2022-09-25T02:40:00.619Z,101208.69
2022-09-25T02:41:15.888Z,101205.69
2022-09-25T02:42:20.552Z,101209.00
2022-09-25T02:43:39.488Z,101188.13
2022-09-25T02:45:02.728Z,101207.97
2022-09-25T02:46:13.510Z,101199.84
2022-09-25T02:47:18.267Z,101203.22
2022-09-25T02:48:35.684Z,101200.00
2022-09-25T02:49:54.500Z,101204.91
2022-09-25T02:51:45.388Z,101196.53
2022-09-25T02:53:11.671Z,101200.63
2022-09-25T02:54:30.015Z,101199.78
2022-09-25T02:55:46.639Z,101206.22
2022-09-25T02:56:54.450Z,101201.16
2022-09-25T02:58:01.952Z,101200.69
2022-09-25T02:59:15.811Z,101186.09
2022-09-25T03:00:18.002Z,101204.41
2022-09-25T03:01:24.703Z,101192.81
2022-09-25T03:02:29.255Z,101203.28
2022-09-25T03:03:32.552Z,101193.19
2022-09-25T03:04:38.162Z,101193.19
2022-09-25T03:05:40.386Z,101206.34
2022-09-25T03:06:42.835Z,101199.25
2022-09-25T03:08:03.330Z,101198.75
2022-09-25T03:09:07.135Z,101199.72
2022-09-25T03:10:09.353Z,101180.38
2022-09-25T03:11:16.954Z,101198.22
2022-09-25T03:12:18.838Z,101199.06
2022-09-25T03:13:27.899Z,101193.84
2022-09-25T03:14:29.722Z,101189.81
2022-09-25T03:15:31.555Z,101198.22
2022-09-25T03:16:40.843Z,101190.34
2022-09-25T03:17:43.655Z,101201.97
2022-09-25T03:18:46.084Z,101204.66
2022-09-25T03:19:47.891Z,101201.31
2022-09-25T03:20:52.847Z,101189.81
2022-09-25T03:21:55.242Z,101196.91
2022-09-25T03:22:57.086Z,101174.84
2022-09-25T03:23:59.577Z,101177.00
2022-09-25T03:25:01.255Z,101188.81
2022-09-25T03:26:04.595Z,101186.97
2022-09-25T03:27:06.577Z,101185.44
2022-09-25T03:28:10.827Z,101187.94
2022-09-25T03:29:14.850Z,101187.78
2022-09-25T03:30:16.764Z,101183.38
2022-09-25T03:31:18.609Z,101168.72
2022-09-25T03:32:20.319Z,101166.16
2022-09-25T03:33:21.993Z,101174.63
2022-09-25T03:34:23.695Z,101173.75
2022-09-25T03:35:26.250Z,101177.31
2022-09-25T03:36:29.911Z,101165.34
2022-09-25T03:37:32.429Z,101170.88
2022-09-25T03:38:34.338Z,101173.59
2022-09-25T03:39:36.152Z,101161.63
2022-09-25T03:40:38.137Z,101176.31
2022-09-25T03:41:39.863Z,101173.59
2022-09-25T03:42:43.363Z,101174.63
2022-09-25T03:43:45.486Z,101170.03
2022-09-25T03:44:47.272Z,101176.31
2022-09-25T03:45:49.037Z,101157.09
2022-09-25T03:46:50.741Z,101169.22
2022-09-25T03:47:52.504Z,101153.88
2022-09-25T03:48:55.494Z,101169.22
2022-09-25T03:49:57.232Z,101154.69
2022-09-25T03:50:59.323Z,101162.13
2022-09-25T03:52:01.278Z,101157.53
2022-09-25T03:53:02.951Z,101137.81
2022-09-25T03:54:04.777Z,101145.25
2022-09-25T03:55:07.122Z,101145.94
2022-09-25T03:56:12.660Z,101152.31
2022-09-25T03:57:15.054Z,101155.69
2022-09-25T03:58:17.172Z,101158.38
2022-09-25T03:59:18.921Z,101142.19
2022-09-25T04:00:20.659Z,101160.22
2022-09-25T04:01:24.525Z,101159.41
2022-09-25T04:02:26.342Z,101154.81
2022-09-25T04:03:31.628Z,101156.72
2022-09-25T04:04:33.367Z,101148.09
2022-09-25T04:05:36.195Z,101147.06
2022-09-25T04:06:38.006Z,101147.56
2022-09-25T04:07:39.712Z,101145.88
2022-09-25T04:08:41.972Z,101144.22
2022-09-25T04:09:43.787Z,101145.88
2022-09-25T04:10:45.472Z,101129.53
2022-09-25T04:11:47.180Z,101126.34
2022-09-25T04:12:48.924Z,101137.94
2022-09-25T04:13:52.783Z,101138.81
2022-09-25T04:14:55.195Z,101133.38
2022-09-25T04:16:01.749Z,101132.53
2022-09-25T04:17:03.616Z,101130.69
2022-09-25T04:18:06.359Z,101128.31
2022-09-25T04:19:08.253Z,101133.38
2022-09-25T04:20:10.024Z,101127.13
2022-09-25T04:21:13.876Z,101125.44
2022-09-25T04:22:15.547Z,101134.56
2022-09-25T04:23:17.856Z,101119.19
2022-09-25T04:24:38.656Z,101130.00
2022-09-25T04:25:40.355Z,101120.31
2022-09-25T04:26:42.107Z,101106.09
2022-09-25T04:27:46.406Z,101122.25
2022-09-25T04:28:48.552Z,101133.38
2022-09-25T04:29:50.625Z,101123.28
2022-09-25T04:30:52.680Z,101137.13
2022-09-25T04:32:13.123Z,101119.25
2022-09-25T04:33:33.976Z,101132.16
2022-09-25T04:34:35.758Z,101130.97
2022-09-25T04:35:38.182Z,101129.66
2022-09-25T04:36:39.856Z,101136.09
2022-09-25T04:37:41.763Z,101128.31
2022-09-25T04:38:44.233Z,101114.41
2022-09-25T04:39:46.006Z,101137.28
2022-09-25T04:40:47.939Z,101126.63
2022-09-25T04:41:49.636Z,101129.34
2022-09-25T04:43:02.331Z,101125.88
2022-09-25T04:44:05.419Z,101120.94
2022-09-25T04:45:07.575Z,101122.59
2022-09-25T04:46:15.435Z,101140.16
2022-09-25T04:47:25.904Z,101134.56
2022-09-25T04:48:27.628Z,101137.13
2022-09-25T04:49:29.416Z,101140.00
2022-09-25T04:50:31.707Z,101116.75
2022-09-25T04:51:36.555Z,101120.94
2022-09-25T04:52:38.726Z,101122.81
2022-09-25T04:53:40.722Z,101114.91
2022-09-25T04:54:43.378Z,101130.72
2022-09-25T04:55:46.395Z,101135.78
2022-09-25T04:56:48.131Z,101138.47
2022-09-25T04:57:58.757Z,101118.59
2022-09-25T04:59:01.171Z,101128.69
2022-09-25T05:00:04.225Z,101130.34
2022-09-25T05:01:09.075Z,101128.69
2022-09-25T05:02:12.028Z,101127.66
2022-09-25T05:03:13.909Z,101133.06
2022-09-25T05:04:16.404Z,101135.78
2022-09-25T05:05:19.278Z,101135.78
2022-09-25T05:06:21.523Z,101126.34
2022-09-25T05:07:23.294Z,101138.66
2022-09-25T05:08:25.030Z,101132.41
2022-09-25T05:09:26.891Z,101129.69
2022-09-25T05:10:31.198Z,101134.44
2022-09-25T05:11:32.946Z,101128.38
2022-09-25T05:12:35.403Z,101130.72
2022-09-25T05:13:37.139Z,101132.41
2022-09-25T05:14:41.221Z,101121.28
2022-09-25T05:15:43.106Z,101127.34
2022-09-25T05:16:46.403Z,101127.19
2022-09-25T05:17:48.216Z,101123.63
2022-09-25T05:18:50.291Z,101114.56
2022-09-25T05:19:52.068Z,101103.09
2022-09-25T05:20:54.390Z,101117.09
2022-09-25T05:21:56.280Z,101119.09
2022-09-25T05:22:58.523Z,101123.63
2022-09-25T05:24:00.242Z,101123.63
2022-09-25T05:25:01.980Z,101115.72
2022-09-25T05:26:03.921Z,101116.53
2022-09-25T05:27:05.661Z,101120.94
2022-09-25T05:28:07.593Z,101113.91
2022-09-25T05:29:10.191Z,101120.94
2022-09-25T05:30:12.287Z,101129.03
2022-09-25T05:31:14.012Z,101123.63
2022-09-25T05:32:17.300Z,101129.03
2022-09-25T05:33:21.727Z,101129.03
2022-09-25T05:34:23.611Z,101129.91
2022-09-25T05:35:27.891Z,101127.34
2022-09-25T05:36:29.680Z,101121.50
2022-09-25T05:37:31.449Z,101122.81
2022-09-25T05:38:35.253Z,101102.59
2022-09-25T05:39:36.901Z,101126.34
2022-09-25T05:40:39.443Z,101092.13
2022-09-25T05:41:41.201Z,101102.94
2022-09-25T05:42:44.422Z,101113.84
2022-09-25T05:43:50.263Z,101110.03
2022-09-25T05:44:52.003Z,101118.22
2022-09-25T05:45:55.598Z,101100.72
2022-09-25T05:46:57.442Z,101112.81
2022-09-25T05:48:05.033Z,101113.84
2022-09-25T05:49:06.775Z,101107.41
2022-09-25T05:50:10.955Z,101109.28
2022-09-25T05:51:12.869Z,101107.59
2022-09-25T05:52:14.764Z,101092.28
2022-09-25T05:53:16.495Z,101092.63
2022-09-25T05:54:18.255Z,101104.03
2022-09-25T05:55:20.023Z,101102.38
2022-09-25T05:56:24.869Z,101105.06
2022-09-25T05:57:27.943Z,101097.81
2022-09-25T05:58:31.370Z,101096.97
2022-09-25T05:59:34.954Z,101094.91
2022-09-25T06:00:36.693Z,101095.13
2022-09-25T06:01:38.543Z,101102.38
2022-09-25T06:02:40.480Z,101096.97
2022-09-25T06:03:42.555Z,101090.06
2022-09-25T06:04:44.352Z,101090.56
2022-09-25T06:05:46.398Z,101104.25
2022-09-25T06:06:48.173Z,101094.63
2022-09-25T06:07:54.712Z,101091.41
2022-09-25T06:08:56.507Z,101086.50
2022-09-25T06:09:58.240Z,101081.78
2022-09-25T06:11:01.536Z,101093.22
2022-09-25T06:12:03.976Z,101091.19
2022-09-25T06:13:05.872Z,101091.19
2022-09-25T06:14:07.761Z,101080.94
2022-09-25T06:15:09.896Z,101093.34
2022-09-25T06:16:18.653Z,101075.31
2022-09-25T06:17:20.441Z,101088.06
2022-09-25T06:18:24.085Z,101083.03
2022-09-25T06:19:25.867Z,101092.09
2022-09-25T06:20:27.742Z,101090.69
2022-09-25T06:21:29.982Z,101084.06
2022-09-25T06:22:32.316Z,101070.16
2022-09-25T06:23:34.077Z,101088.72
2022-09-25T06:24:35.847Z,101094.63
2022-09-25T06:25:37.761Z,101081.31
2022-09-25T06:26:40.744Z,101072.16
2022-09-25T06:27:42.377Z,101078.88
2022-09-25T06:28:44.164Z,101078.97
2022-09-25T06:29:45.982Z,101083.63
2022-09-25T06:30:47.934Z,101079.72
2022-09-25T06:31:50.495Z,101084.78
2022-09-25T06:33:00.009Z,101074.16
2022-09-25T06:34:02.246Z,101087.63
2022-09-25T06:35:04.954Z,101079.63
2022-09-25T06:36:06.729Z,101073.22
2022-09-25T06:37:08.933Z,101085.25
2022-09-25T06:38:11.589Z,101093.88
2022-09-25T06:39:13.332Z,101087.06
2022-09-25T06:40:15.355Z,101082.28
2022-09-25T06:41:17.071Z,101085.00
2022-09-25T06:42:18.878Z,101079.03
2022-09-25T06:43:20.539Z,101072.31
2022-09-25T06:44:23.001Z,101077.41
2022-09-25T06:45:26.821Z,101080.78
2022-09-25T06:46:28.528Z,101069.94
2022-09-25T06:47:30.283Z,101063.69
2022-09-25T06:48:32.094Z,101065.56
2022-09-25T06:49:33.988Z,101082.38
2022-09-25T06:50:45.511Z,101065.75
2022-09-25T06:51:47.822Z,101076.84
2022-09-25T06:52:49.545Z,101071.44
2022-09-25T06:53:54.777Z,101059.03
2022-09-25T06:54:56.493Z,101074.59
2022-09-25T06:56:00.045Z,101076.25
2022-09-25T06:57:02.087Z,101071.88
2022-09-25T06:58:06.015Z,101073.38
2022-09-25T06:59:09.287Z,101077.59
2022-09-25T07:00:11.682Z,101079.06
2022-09-25T07:01:14.092Z,101078.03
2022-09-25T07:02:34.284Z,101074.69
2022-09-25T07:03:45.508Z,101064.47
2022-09-25T07:04:51.164Z,101063.56
2022-09-25T07:05:53.090Z,101074.41
2022-09-25T07:06:58.589Z,101070.56
2022-09-25T07:08:00.543Z,101073.56
2022-09-25T07:09:04.028Z,101078.97
2022-09-25T07:10:06.308Z,101071.72
2022-09-25T07:11:08.137Z,101072.25
2022-09-25T07:12:11.335Z,101074.41
2022-09-25T07:13:13.127Z,101082.34
2022-09-25T07:14:14.867Z,101065.13
2022-09-25T07:15:16.992Z,101080.47
2022-09-25T07:16:21.033Z,101071.50
2022-09-25T07:17:22.868Z,101067.50
2022-09-25T07:18:26.076Z,101077.56
2022-09-25T07:19:28.061Z,101077.38
2022-09-25T07:20:30.450Z,101076.53
2022-09-25T07:21:32.450Z,101076.53
2022-09-25T07:22:34.324Z,101081.94
2022-09-25T07:23:36.573Z,101080.91
2022-09-25T07:24:39.025Z,101066.00
2022-09-25T07:25:41.107Z,101064.41
2022-09-25T07:26:43.435Z,101082.81
2022-09-25T07:27:45.823Z,101081.59
2022-09-25T07:28:48.161Z,101072.16
2022-09-25T07:29:49.893Z,101076.19
2022-09-25T07:30:52.611Z,101080.56
2022-09-25T07:31:54.398Z,101061.31
2022-09-25T07:33:00.054Z,101077.00
2022-09-25T07:34:08.866Z,101064.88
2022-09-25T07:35:11.082Z,101072.88
2022-09-25T07:36:13.929Z,101069.72
2022-09-25T07:37:16.312Z,101071.03
2022-09-25T07:38:18.791Z,101076.44
2022-09-25T07:39:20.485Z,101058.41
2022-09-25T07:40:22.271Z,101075.19
2022-09-25T07:41:24.308Z,101060.19
2022-09-25T07:42:26.222Z,101067.72
2022-09-25T07:43:27.942Z,101066.91
2022-09-25T07:44:36.280Z,101067.53
2022-09-25T07:45:39.534Z,101059.19
2022-09-25T07:46:44.510Z,101055.84
2022-09-25T07:47:46.520Z,101060.69
2022-09-25T07:48:49.657Z,101063.41
2022-09-25T07:49:51.348Z,101063.41
2022-09-25T07:50:54.403Z,101057.78
2022-09-25T07:51:56.267Z,101066.78
2022-09-25T07:52:58.758Z,101050.03
2022-09-25T07:54:01.257Z,101046.28
2022-09-25T07:55:03.102Z,101058.44
2022-09-25T07:56:07.123Z,101059.28
2022-09-25T07:57:09.435Z,101043.59
2022-09-25T07:58:12.041Z,101057.22
2022-09-25T07:59:13.821Z,101045.09
2022-09-25T08:00:15.695Z,101044.44
2022-09-25T08:01:17.555Z,101039.66
2022-09-25T08:02:19.395Z,101045.34
2022-09-25T08:03:21.936Z,101049.72
2022-09-25T08:04:23.768Z,101048.06
2022-09-25T08:05:26.898Z,101047.00
2022-09-25T08:06:28.713Z,101046.84
2022-09-25T08:07:30.520Z,101045.97
2022-09-25T08:08:35.008Z,101045.97
2022-09-25T08:09:36.799Z,101055.63
2022-09-25T08:10:38.563Z,101043.91
2022-09-25T08:11:40.324Z,101034.88
2022-09-25T08:12:43.356Z,101044.94
2022-09-25T08:13:45.934Z,101033.84
2022-09-25T08:14:47.696Z,101038.50
2022-09-25T08:15:49.459Z,101024.59
2022-09-25T08:16:55.915Z,101038.50
2022-09-25T08:17:57.774Z,101038.31
2022-09-25T08:18:59.533Z,101039.13
2022-09-25T08:20:01.399Z,101044.78
2022-09-25T08:21:04.933Z,101038.06
2022-09-25T08:22:06.822Z,101035.13
2022-09-25T08:23:08.569Z,101036.44
2022-09-25T08:24:10.958Z,101038.50
2022-09-25T08:25:13.153Z,101046.25
2022-09-25T08:26:15.846Z,101028.44
2022-09-25T08:27:18.210Z,101041.66
2022-09-25T08:28:19.880Z,101041.66
2022-09-25T08:29:21.635Z,101038.09
2022-09-25T08:30:23.433Z,101038.09
2022-09-25T08:31:25.249Z,101040.63
2022-09-25T08:32:27.026Z,101037.94
2022-09-25T08:33:28.833Z,101034.38
2022-09-25T08:34:46.954Z,101042.31
2022-09-25T08:36:00.223Z,101032.75
2022-09-25T08:37:01.931Z,101029.84
2022-09-25T08:38:04.723Z,101017.28
2022-09-25T08:39:06.491Z,101023.13
2022-09-25T08:40:19.555Z,101017.44
2022-09-25T08:41:33.567Z,101023.59
2022-09-25T08:42:37.741Z,101019.38
2022-09-25T08:43:57.622Z,101027.75
2022-09-25T08:45:22.880Z,101016.88
2022-09-25T08:46:59.293Z,101006.69
2022-09-25T08:48:19.479Z,101018.25
2022-09-25T08:49:26.381Z,101018.41
2022-09-25T08:50:29.761Z,101017.94
2022-09-25T08:51:38.959Z,101024.63
2022-09-25T08:52:46.079Z,101006.44
2022-09-25T08:53:48.380Z,101027.34
2022-09-25T08:54:51.111Z,101012.28
2022-09-25T08:56:12.141Z,101021.44
2022-09-25T08:57:24.782Z,101002.84
2022-09-25T08:58:33.915Z,101000.22
2022-09-25T08:59:40.612Z,101003.75
2022-09-25T09:00:43.860Z,100993.91
2022-09-25T09:01:53.445Z,100999.56
2022-09-25T09:02:58.245Z,101006.84
2022-09-25T09:04:08.105Z,101009.38
2022-09-25T09:05:22.429Z,101003.09
2022-09-25T09:06:27.122Z,100998.31
2022-09-25T09:07:39.207Z,101011.88
2022-09-25T09:08:43.946Z,101002.06
2022-09-25T09:09:55.118Z,100986.56
2022-09-25T09:11:10.013Z,101009.19
2022-09-25T09:12:23.691Z,100999.19
2022-09-25T09:13:34.715Z,100987.63
2022-09-25T09:14:44.975Z,100984.75
2022-09-25T09:16:02.084Z,100996.91
2022-09-25T09:17:18.178Z,100985.16
2022-09-25T09:18:26.178Z,100990.66
2022-09-25T09:19:28.029Z,100986.06
2022-09-25T09:20:41.359Z,100984.78
2022-09-25T09:22:00.948Z,100996.09
2022-09-25T09:23:03.620Z,100988.59
2022-09-25T09:24:16.122Z,100971.38
2022-09-25T09:25:32.364Z,100986.69
2022-09-25T09:26:34.060Z,100974.38
2022-09-25T09:28:04.923Z,100981.94
2022-09-25T09:29:53.672Z,100983.41
2022-09-25T09:31:12.764Z,100974.34
2022-09-25T09:32:17.574Z,100977.41
2022-09-25T09:33:39.163Z,100980.13
2022-09-25T09:35:06.273Z,100980.13
2022-09-25T09:36:16.050Z,100986.22
2022-09-25T09:37:41.310Z,100977.41
2022-09-25T09:38:48.429Z,100977.03
2022-09-25T09:40:29.740Z,100975.38
2022-09-25T09:41:44.135Z,100976.84
2022-09-25T09:43:13.305Z,100966.63
2022-09-25T09:44:41.090Z,100969.56
2022-09-25T09:46:25.852Z,100959.59
2022-09-25T09:47:42.682Z,100964.16
2022-09-25T09:49:10.346Z,100954.94
2022-09-25T09:50:20.782Z,100951.19
2022-09-25T09:51:32.364Z,100944.00
2022-09-25T09:52:39.416Z,100953.69
2022-09-25T09:53:46.560Z,100951.31
2022-09-25T09:54:54.298Z,100946.72
2022-09-25T09:56:07.391Z,100927.03
2022-09-25T09:57:20.695Z,100944.88
2022-09-25T09:58:30.293Z,100926.03
2022-09-25T09:59:46.386Z,100923.13
2022-09-25T10:00:52.502Z,100939.06
2022-09-25T10:02:36.031Z,100928.66
2022-09-25T10:03:39.410Z,100926.34
2022-09-25T10:04:42.476Z,100937.00
2022-09-25T10:05:48.679Z,100927.38
2022-09-25T10:07:04.500Z,100924.31
2022-09-25T10:08:06.411Z,100936.16
2022-09-25T10:09:14.165Z,100930.31
2022-09-25T10:10:17.512Z,100924.88
2022-09-25T10:11:20.870Z,100926.91
2022-09-25T10:12:29.114Z,100935.72
2022-09-25T10:13:36.455Z,100925.88
2022-09-25T10:14:43.102Z,100923.16
2022-09-25T10:15:56.572Z,100918.56
2022-09-25T10:16:58.792Z,100917.38
2022-09-25T10:18:03.226Z,100919.47
2022-09-25T10:19:20.629Z,100923.00
2022-09-25T10:20:24.241Z,100919.06
2022-09-25T10:21:30.487Z,100917.56
2022-09-25T10:22:40.796Z,100917.38
2022-09-25T10:23:52.710Z,100911.97
2022-09-25T10:25:02.367Z,100908.59
2022-09-25T10:26:23.127Z,100912.78
2022-09-25T10:27:24.774Z,100915.94
2022-09-25T10:28:36.027Z,100905.28
2022-09-25T10:29:37.765Z,100909.25
2022-09-25T10:30:45.950Z,100898.59
2022-09-25T10:31:48.661Z,100902.78
2022-09-25T10:33:15.555Z,100899.66
2022-09-25T10:34:22.537Z,100893.59
2022-09-25T10:35:28.980Z,100898.00
2022-09-25T10:36:34.092Z,100895.47
2022-09-25T10:37:35.983Z,100899.03
2022-09-25T10:38:44.208Z,100893.75
2022-09-25T10:40:01.893Z,100893.22
2022-09-25T10:41:08.391Z,100890.69
2022-09-25T10:42:41.162Z,100890.09
2022-09-25T10:43:56.913Z,100885.94
2022-09-25T10:44:58.655Z,100880.91
2022-09-25T10:46:11.864Z,100877.56
2022-09-25T10:47:38.198Z,100875.69
2022-09-25T10:48:59.368Z,100869.44
2022-09-25T10:50:12.535Z,100871.34
2022-09-25T10:51:17.437Z,100858.34
2022-09-25T10:52:22.297Z,100869.88
2022-09-25T10:53:29.083Z,100871.09
2022-09-25T10:54:30.929Z,100868.41
2022-09-25T10:55:36.616Z,100867.75
2022-09-25T10:56:39.594Z,100852.94
2022-09-25T10:57:42.698Z,100858.59
2022-09-25T10:58:48.084Z,100865.69
2022-09-25T10:59:51.935Z,100861.06
2022-09-25T11:00:57.930Z,100852.94
2022-09-25T11:01:59.760Z,100846.06
2022-09-25T11:03:05.747Z,100846.00
2022-09-25T11:04:16.498Z,100853.59
2022-09-25T11:05:22.043Z,100844.44
2022-09-25T11:06:33.402Z,100842.31
2022-09-25T11:07:35.175Z,100841.06
2022-09-25T11:08:40.302Z,100850.69
2022-09-25T11:09:44.990Z,100848.81
2022-09-25T11:10:56.507Z,100836.88
2022-09-25T11:12:26.431Z,100845.72
2022-09-25T11:13:45.975Z,100840.91
2022-09-25T11:14:59.013Z,100819.34
2022-09-25T11:16:02.112Z,100828.56
2022-09-25T11:17:06.861Z,100837.16
2022-09-25T11:18:40.463Z,100841.31
2022-09-25T11:19:42.240Z,100827.34
2022-09-25T11:20:44.467Z,100824.81
2022-09-25T11:21:57.079Z,100830.88
2022-09-25T11:23:19.033Z,100828.81
2022-09-25T11:24:44.002Z,100826.94
2022-09-25T11:25:53.829Z,100829.66
2022-09-25T11:27:14.496Z,100822.97
2022-09-25T11:28:44.488Z,100824.63
2022-09-25T11:29:54.637Z,100785.78
2022-09-25T11:31:11.642Z,100802.47
2022-09-25T11:32:24.437Z,100815.28
2022-09-25T11:33:55.885Z,100805.25
2022-09-25T11:35:27.998Z,100810.25
2022-09-25T11:36:39.082Z,100812.16
2022-09-25T11:37:54.820Z,100807.31
2022-09-25T11:39:27.839Z,100801.66
2022-09-25T11:40:57.479Z,100802.53
2022-09-25T11:42:40.279Z,100797.59
2022-09-25T11:43:59.611Z,100802.78
2022-09-25T11:45:18.208Z,100797.72
2022-09-25T11:46:34.005Z,100778.28
2022-09-25T11:47:46.125Z,100780.59
2022-09-25T11:49:17.288Z,100793.34
2022-09-25T11:50:22.720Z,100788.97
2022-09-25T11:51:41.020Z,100793.13
2022-09-25T11:53:02.070Z,100783.53
2022-09-25T11:54:32.761Z,100790.84
2022-09-25T11:55:43.471Z,100793.34
2022-09-25T11:56:48.224Z,100782.91
2022-09-25T11:58:11.214Z,100787.28
2022-09-25T11:59:13.623Z,100786.47
2022-09-25T12:00:30.194Z,100778.94
2022-09-25T12:01:36.858Z,100766.41
2022-09-25T12:03:09.455Z,100780.00
2022-09-25T12:04:55.848Z,100774.34
2022-09-25T12:06:27.049Z,100773.97
2022-09-25T12:07:28.718Z,100776.47
2022-09-25T12:08:44.054Z,100771.88
2022-09-25T12:10:04.235Z,100767.66
2022-09-25T12:11:30.222Z,100768.75
2022-09-25T12:12:59.402Z,100768.56
2022-09-25T12:14:16.744Z,100769.38
2022-09-25T12:15:51.205Z,100752.22
2022-09-25T12:16:59.135Z,100766.84
2022-09-25T12:18:10.797Z,100771.88
2022-09-25T12:19:24.555Z,100759.13
2022-09-25T12:20:50.217Z,100768.53
2022-09-25T12:22:23.893Z,100770.22
2022-09-25T12:23:43.561Z,100757.25
2022-09-25T12:25:01.534Z,100760.38
2022-09-25T12:26:09.000Z,100755.59
2022-09-25T12:27:42.124Z,100758.72
2022-09-25T12:29:26.089Z,100758.34
2022-09-25T12:31:04.740Z,100738.69
2022-09-25T12:32:20.585Z,100752.06
2022-09-25T12:33:43.954Z,100748.53
2022-09-25T12:35:13.130Z,100757.03
2022-09-25T12:36:50.523Z,100747.47
2022-09-25T12:37:57.212Z,100743.28
2022-09-25T12:39:09.372Z,100738.47
2022-09-25T12:40:26.917Z,100742.84
2022-09-25T12:41:47.296Z,100740.53
2022-09-25T12:42:52.034Z,100742.22
2022-09-25T12:44:06.340Z,100740.53
2022-09-25T12:45:32.288Z,100739.50
2022-09-25T12:46:51.647Z,100731.78
2022-09-25T12:47:53.334Z,100729.28
2022-09-25T12:49:13.804Z,100730.94
2022-09-25T12:50:29.401Z,100714.22
2022-09-25T12:51:40.581Z,100722.41
2022-09-25T12:52:53.715Z,100725.31
2022-09-25T12:54:01.497Z,100713.41
2022-09-25T12:55:13.743Z,100720.50
2022-09-25T12:56:27.708Z,100722.59